Toivola, Minnesota
Current Conditions -  °F | °C
As of 3:53 PM on Saturday 25 Oct 2014 (Local Time) from KHIB Reporting Station
Clear Clear  
Wind Chill: 57°   Ceiling: Unl
Heat Index: 57°   Visibility: 10mi
Dew Point: 24°   Wind: 16mph
Humidity: 28%   Direction: 300°WNW
Pressure: 29.93"   Gusts: 30mph
Location:  47.1169°N, 92.8519°W
Report Text: KHIB 252053Z AUTO 30014G26KT 10SM CLR 14/M04 A2993 RMK AO2 PK WND 31029/2016 SLP140 T01391044 53003
Loading
Personal Weather Stations






























Interactive Weather Map
Tropical Storm Tracking
New forecast layout! Learn more

10-Day Weather Forecast

Advertisements
Track Severe Weather on mobile